Pagrindinis puslapis
METAR-TAF:

METAR-TAF

Oro uostai :

Rabato oro uostas

Rabatas, Marokas

platuma: 34-03N, ilguma: 006-46W, Aukštis: 84 m

Dabartinis oras

Ataskaita buvo paskelbta 22 minutes, ne 05:00 UTC
Vėjas 6 kt iš Pietų
Temperatūra 12°C
Drėgmė 100%
Slėgis 1012 hPa
Matomumas: 6000 m

METAR: GMME 060500Z 18006KT 6000 NSC 12/12 Q1012 NOSIG

Laikas: 06:22 (05:22 UTC)

Prognozė

Ataskaita buvo paskelbta 6 valandos ir 22 minutes, ne 23:00 UTC
Prognozė galioja nuo 06 metu 00 UTC su 07 metu 06 UTC
Vėjas 6 kt iš Pietų/Pietryčių
Matomumas: 6000 m
Tikimybė 30% :
Laikinai
nuo 06 metu 04 UTC su 06 metu 09 UTC
Matomumas: 3000 m
Su prošvaistėmis ne aukštis 1500 ft
rūkana

TAF: GMME 052300Z 0600/0706 16006KT 6000 NSC PROB30 TEMPO 0604/0609 3000 BR BKN015

Orai ataskaitas ir orų prognozės (METAR, TAF).

turimą stotys yra geltonos ir raudonos taškus žemėlapyje.

Perkelti pele per norėdami pamatyti stoties vardą.

Tada spustelėkite, norėdami matyti oro stebėjimo ir prognozės.

Norėdami pakeisti žemėlapį: spustelėkite ant žalios mygtukų su juodo kryžiaus žemyn,; žalią mygtuką su brūkšneliu, jei norite nutolinti; arba žalių rodyklių gretimoms žemėlapius.


METAR-TAF: